createdAt,value
2022-08-26T00:00:40.618Z,1007.54
2022-08-26T00:01:40.648Z,1007.51
2022-08-26T00:02:40.728Z,1007.49
2022-08-26T00:03:40.760Z,1007.54
2022-08-26T00:04:40.736Z,1007.53
2022-08-26T00:05:40.771Z,1007.55
2022-08-26T00:06:42.385Z,1007.53
2022-08-26T00:07:40.832Z,1007.59
2022-08-26T00:08:40.861Z,1007.59
2022-08-26T00:09:40.894Z,1007.62
2022-08-26T00:10:40.923Z,1007.61
2022-08-26T00:11:40.955Z,1007.64
2022-08-26T00:12:40.984Z,1007.62
2022-08-26T00:13:41.016Z,1007.66
2022-08-26T00:15:41.085Z,1007.69
2022-08-26T00:16:47.236Z,1007.69
2022-08-26T00:17:41.136Z,1007.67
2022-08-26T00:18:42.180Z,1007.68
2022-08-26T00:19:41.401Z,1007.65
2022-08-26T00:20:41.228Z,1007.66
2022-08-26T00:21:41.257Z,1007.70
2022-08-26T00:22:41.893Z,1007.74
2022-08-26T00:23:42.534Z,1007.75
2022-08-26T00:24:41.339Z,1007.68
2022-08-26T00:25:42.570Z,1007.70
2022-08-26T00:26:41.622Z,1007.70
2022-08-26T00:27:41.429Z,1007.77
2022-08-26T00:28:41.462Z,1007.80
2022-08-26T00:30:34.062Z,1007.82
2022-08-26T00:31:34.154Z,1007.82
2022-08-26T00:32:34.122Z,1007.80
2022-08-26T00:33:36.775Z,1007.83
2022-08-26T00:35:34.221Z,1007.80
2022-08-26T00:36:34.254Z,1007.83
2022-08-26T00:37:34.282Z,1007.84
2022-08-26T00:38:34.299Z,1007.85
2022-08-26T00:40:34.457Z,1007.87
2022-08-26T00:41:34.403Z,1007.83
2022-08-26T00:42:34.436Z,1007.89
2022-08-26T00:43:47.287Z,1007.87
2022-08-26T00:44:34.496Z,1007.81
2022-08-26T00:45:34.735Z,1007.83
2022-08-26T00:47:34.590Z,1007.83
2022-08-26T00:48:34.618Z,1007.88
2022-08-26T00:49:34.646Z,1007.89
2022-08-26T00:50:34.682Z,1007.83
2022-08-26T00:51:34.912Z,1007.87
2022-08-26T00:53:34.770Z,1007.91
2022-08-26T00:54:35.000Z,1007.91
2022-08-26T00:55:38.015Z,1007.91
2022-08-26T00:56:34.859Z,1007.89
2022-08-26T00:57:34.880Z,1007.88
2022-08-26T00:58:34.922Z,1007.89
2022-08-26T00:59:34.953Z,1007.87
2022-08-26T01:01:35.114Z,1007.93
2022-08-26T01:02:35.465Z,1007.92
2022-08-26T01:03:35.074Z,1007.95
2022-08-26T01:04:35.103Z,1007.98
2022-08-26T01:05:35.136Z,1008.00
2022-08-26T01:06:35.168Z,1008.02
2022-08-26T01:09:35.464Z,1008.07
2022-08-26T01:15:36.955Z,1008.04
2022-08-26T01:28:36.145Z,1008.21
2022-08-26T01:29:36.172Z,1008.24
2022-08-26T01:30:36.096Z,1008.22
2022-08-26T01:31:35.950Z,1008.24
2022-08-26T01:32:35.959Z,1008.30
2022-08-26T01:33:42.103Z,1008.24
2022-08-26T01:35:36.248Z,1008.31
2022-08-26T01:36:36.061Z,1008.28
2022-08-26T01:37:36.095Z,1008.29
2022-08-26T01:39:36.164Z,1008.41
2022-08-26T01:40:36.200Z,1008.39
2022-08-26T01:41:36.228Z,1008.35
2022-08-26T01:42:36.258Z,1008.35
2022-08-26T01:43:36.275Z,1008.41
2022-08-26T01:44:36.319Z,1008.39
2022-08-26T01:45:36.589Z,1008.44
2022-08-26T01:46:36.368Z,1008.42
2022-08-26T01:47:36.399Z,1008.45
2022-08-26T01:49:36.662Z,1008.43
2022-08-26T01:51:36.838Z,1008.50
2022-08-26T01:52:36.567Z,1008.52
2022-08-26T01:53:36.584Z,1008.50
2022-08-26T01:54:36.625Z,1008.53
2022-08-26T01:55:36.651Z,1008.52
2022-08-26T01:56:36.993Z,1008.57
2022-08-26T01:57:36.701Z,1008.57
2022-08-26T01:58:36.951Z,1008.58
2022-08-26T01:59:36.762Z,1008.57
2022-08-26T02:01:37.041Z,1008.53
2022-08-26T02:03:38.725Z,1008.55
2022-08-26T02:04:37.317Z,1008.52
2022-08-26T02:05:36.955Z,1008.52
2022-08-26T02:06:37.298Z,1008.54
2022-08-26T02:07:37.019Z,1008.54
2022-08-26T02:08:37.050Z,1008.57
2022-08-26T02:09:38.421Z,1008.57
2022-08-26T02:10:37.311Z,1008.61
2022-08-26T02:11:37.125Z,1008.60
2022-08-26T02:12:37.374Z,1008.62
2022-08-26T02:14:37.230Z,1008.60
2022-08-26T02:15:37.362Z,1008.61
2022-08-26T02:16:38.082Z,1008.60
2022-08-26T02:18:37.356Z,1008.63
2022-08-26T02:20:38.830Z,1008.69
2022-08-26T02:23:37.707Z,1008.74
2022-08-26T02:24:37.533Z,1008.64
2022-08-26T02:25:37.568Z,1008.66
2022-08-26T02:26:37.798Z,1008.69
2022-08-26T02:27:37.631Z,1008.70
2022-08-26T02:28:37.655Z,1008.69
2022-08-26T02:30:37.719Z,1008.72
2022-08-26T02:31:38.139Z,1008.72
2022-08-26T02:33:37.811Z,1008.70
2022-08-26T02:34:37.841Z,1008.73
2022-08-26T02:35:37.872Z,1008.75
2022-08-26T02:37:38.239Z,1008.79
2022-08-26T02:39:38.503Z,1008.69
2022-08-26T02:40:38.424Z,1008.72
2022-08-26T02:41:44.946Z,1008.71
2022-08-26T02:42:38.081Z,1008.71
2022-08-26T02:43:38.111Z,1008.67
2022-08-26T02:45:38.160Z,1008.68
2022-08-26T02:47:38.439Z,1008.73
2022-08-26T02:49:38.296Z,1008.73
2022-08-26T02:50:38.324Z,1008.71
2022-08-26T02:51:38.352Z,1008.75
2022-08-26T02:52:38.390Z,1008.77
2022-08-26T02:53:38.411Z,1008.75
2022-08-26T02:54:39.648Z,1008.71
2022-08-26T02:55:38.461Z,1008.75
2022-08-26T02:56:38.492Z,1008.77
2022-08-26T02:57:38.523Z,1008.76
2022-08-26T02:59:38.585Z,1008.77
2022-08-26T03:00:38.723Z,1008.80
2022-08-26T03:04:39.662Z,1008.78
2022-08-26T03:05:38.781Z,1008.77
2022-08-26T03:06:39.323Z,1008.76
2022-08-26T03:09:39.909Z,1008.74
2022-08-26T03:13:40.337Z,1008.81
2022-08-26T03:15:39.284Z,1008.74
2022-08-26T03:18:39.776Z,1008.73
2022-08-26T03:21:39.469Z,1008.73
2022-08-26T03:22:39.287Z,1008.76
2022-08-26T03:23:39.525Z,1008.74
2022-08-26T03:25:40.299Z,1008.76
2022-08-26T03:26:39.612Z,1008.75
2022-08-26T03:27:39.648Z,1008.72
2022-08-26T03:30:39.534Z,1008.76
2022-08-26T03:31:39.639Z,1008.77
2022-08-26T03:32:39.797Z,1008.75
2022-08-26T03:34:39.854Z,1008.77
2022-08-26T03:36:39.917Z,1008.72
2022-08-26T03:37:40.147Z,1008.77
2022-08-26T03:41:39.853Z,1008.73
2022-08-26T03:42:40.099Z,1008.70
2022-08-26T03:45:39.975Z,1008.76
2022-08-26T03:46:40.098Z,1008.72
2022-08-26T03:47:40.050Z,1008.79
2022-08-26T03:48:40.076Z,1008.80
2022-08-26T03:50:40.340Z,1008.76
2022-08-26T03:51:40.369Z,1008.77
2022-08-26T03:54:40.248Z,1008.79
2022-08-26T03:55:40.595Z,1008.80
2022-08-26T03:56:41.625Z,1008.80
2022-08-26T03:57:40.361Z,1008.78
2022-08-26T03:58:42.874Z,1008.82
2022-08-26T03:59:41.342Z,1008.77
2022-08-26T04:00:40.654Z,1008.76
2022-08-26T04:02:40.549Z,1008.75
2022-08-26T04:04:41.478Z,1008.78
2022-08-26T04:05:40.578Z,1008.77
2022-08-26T04:06:40.622Z,1008.78
2022-08-26T04:07:40.850Z,1008.75
2022-08-26T04:08:40.682Z,1008.80
2022-08-26T04:09:40.713Z,1008.80
2022-08-26T04:10:40.948Z,1008.77
2022-08-26T04:12:40.802Z,1008.83
2022-08-26T04:13:40.821Z,1008.79
2022-08-26T04:14:40.849Z,1008.79
2022-08-26T04:15:41.245Z,1008.83
2022-08-26T04:16:40.924Z,1008.78
2022-08-26T04:17:41.145Z,1008.79
2022-08-26T04:18:46.596Z,1008.79
2022-08-26T04:19:41.004Z,1008.80
2022-08-26T04:20:41.032Z,1008.81
2022-08-26T04:21:41.076Z,1008.78
2022-08-26T04:22:41.093Z,1008.77
2022-08-26T04:23:47.597Z,1008.79
2022-08-26T04:24:41.156Z,1008.79
2022-08-26T04:25:41.388Z,1008.79
2022-08-26T04:26:42.692Z,1008.75
2022-08-26T04:27:41.464Z,1008.81
2022-08-26T04:28:41.275Z,1008.82
2022-08-26T04:29:41.308Z,1008.81
2022-08-26T04:30:41.549Z,1008.79
2022-08-26T04:31:41.567Z,1008.78
2022-08-26T04:32:41.408Z,1008.80
2022-08-26T04:33:41.779Z,1008.73
2022-08-26T04:36:41.947Z,1008.80
2022-08-26T04:37:43.154Z,1008.80
2022-08-26T04:38:41.589Z,1008.81
2022-08-26T04:39:41.614Z,1008.81
2022-08-26T04:40:41.642Z,1008.83
2022-08-26T04:41:41.685Z,1008.88
2022-08-26T04:42:41.703Z,1008.86
2022-08-26T04:44:41.967Z,1008.84
2022-08-26T04:45:41.794Z,1008.89
2022-08-26T04:46:43.718Z,1008.88
2022-08-26T04:47:41.865Z,1008.92
2022-08-26T04:48:42.306Z,1008.93
2022-08-26T04:49:41.923Z,1008.92
2022-08-26T04:50:42.162Z,1008.93
2022-08-26T04:51:41.986Z,1008.96
2022-08-26T04:53:42.050Z,1008.93
2022-08-26T04:54:42.155Z,1008.97
2022-08-26T04:55:42.837Z,1008.98
2022-08-26T04:56:42.143Z,1008.98
2022-08-26T04:58:42.207Z,1008.97
2022-08-26T04:59:42.231Z,1008.99
2022-08-26T05:00:42.466Z,1008.96
2022-08-26T05:01:42.544Z,1008.96
2022-08-26T05:02:42.323Z,1008.96
2022-08-26T05:03:42.381Z,1008.99
2022-08-26T05:04:42.593Z,1009.02
2022-08-26T05:05:42.416Z,1009.02
2022-08-26T05:06:42.443Z,1009.03
2022-08-26T05:07:42.676Z,1009.02
2022-08-26T05:09:42.538Z,1009.02
2022-08-26T05:10:42.774Z,1008.96
2022-08-26T05:11:42.806Z,1009.00
2022-08-26T05:12:42.629Z,1008.98
2022-08-26T05:13:42.660Z,1008.97
2022-08-26T05:14:43.293Z,1008.96
2022-08-26T05:15:42.772Z,1008.98
2022-08-26T05:17:42.783Z,1009.03
2022-08-26T05:18:43.016Z,1009.00
2022-08-26T05:19:43.164Z,1008.97
2022-08-26T05:20:42.874Z,1009.05
2022-08-26T05:21:42.904Z,1009.01
2022-08-26T05:22:43.343Z,1008.98
2022-08-26T05:23:43.256Z,1009.00
2022-08-26T05:24:42.996Z,1008.97
2022-08-26T05:25:43.014Z,1008.97
2022-08-26T05:26:44.549Z,1008.97
2022-08-26T05:27:43.984Z,1008.98
2022-08-26T05:28:43.308Z,1008.95
2022-08-26T05:29:43.454Z,1008.97
2022-08-26T05:30:43.260Z,1008.99
2022-08-26T05:31:43.255Z,1008.99
2022-08-26T05:32:43.242Z,1009.00
2022-08-26T05:33:43.677Z,1009.04
2022-08-26T05:34:43.329Z,1009.02
2022-08-26T05:35:43.589Z,1009.04
2022-08-26T05:36:43.364Z,1009.08
2022-08-26T05:37:43.379Z,1009.02
2022-08-26T05:38:43.931Z,1009.06
2022-08-26T05:39:51.174Z,1009.04
2022-08-26T05:42:43.542Z,1009.08
2022-08-26T05:45:45.467Z,1009.09
2022-08-26T05:46:44.093Z,1009.09
2022-08-26T05:48:44.271Z,1009.09
2022-08-26T05:50:46.729Z,1009.10
2022-08-26T05:55:44.549Z,1009.16
2022-08-26T05:56:44.788Z,1009.14
2022-08-26T05:57:44.408Z,1009.11
2022-08-26T06:00:44.391Z,1009.13
2022-08-26T06:16:44.789Z,1009.25
2022-08-26T06:28:46.068Z,1009.28
2022-08-26T06:33:45.712Z,1009.25
2022-08-26T06:35:45.167Z,1009.28
2022-08-26T06:37:45.228Z,1009.22
2022-08-26T06:38:45.551Z,1009.24
2022-08-26T06:39:45.895Z,1009.21
2022-08-26T06:40:45.322Z,1009.29
2022-08-26T06:42:45.368Z,1009.32
2022-08-26T06:44:45.442Z,1009.34
2022-08-26T06:45:45.468Z,1009.31
2022-08-26T06:46:45.575Z,1009.36
2022-08-26T06:47:45.733Z,1009.39
2022-08-26T06:48:46.355Z,1009.32
2022-08-26T06:49:45.590Z,1009.31
2022-08-26T06:50:45.833Z,1009.30
2022-08-26T06:51:45.734Z,1009.35
2022-08-26T06:52:45.884Z,1009.38
2022-08-26T06:53:45.714Z,1009.36
2022-08-26T06:54:46.148Z,1009.39
2022-08-26T06:56:45.804Z,1009.37
2022-08-26T06:57:47.233Z,1009.38
2022-08-26T06:58:46.574Z,1009.39
2022-08-26T06:59:46.091Z,1009.40
2022-08-26T07:02:46.180Z,1009.41
2022-08-26T07:03:46.622Z,1009.42
2022-08-26T07:04:47.691Z,1009.42
2022-08-26T07:05:46.070Z,1009.42
2022-08-26T07:06:46.105Z,1009.43
2022-08-26T07:07:46.122Z,1009.47
2022-08-26T07:08:46.169Z,1009.41
2022-08-26T07:09:46.194Z,1009.40
2022-08-26T07:10:46.837Z,1009.42
2022-08-26T07:11:46.255Z,1009.42
2022-08-26T07:14:47.499Z,1009.42
2022-08-26T07:15:46.743Z,1009.42
2022-08-26T07:16:46.921Z,1009.41
2022-08-26T07:18:47.085Z,1009.36
2022-08-26T07:19:46.504Z,1009.43
2022-08-26T07:23:46.627Z,1009.45
2022-08-26T07:24:47.372Z,1009.45
2022-08-26T07:25:47.094Z,1009.46
2022-08-26T07:26:47.026Z,1009.46
2022-08-26T07:27:46.954Z,1009.45
2022-08-26T07:28:46.781Z,1009.50
2022-08-26T07:29:46.817Z,1009.51
2022-08-26T07:31:46.872Z,1009.52
2022-08-26T07:33:47.229Z,1009.57
2022-08-26T07:34:46.967Z,1009.58
2022-08-26T07:35:47.310Z,1009.59
2022-08-26T07:36:47.027Z,1009.58
2022-08-26T07:37:47.063Z,1009.63
2022-08-26T07:38:47.324Z,1009.64
2022-08-26T07:39:47.485Z,1009.61
2022-08-26T07:40:47.155Z,1009.65
2022-08-26T07:45:47.549Z,1009.68
2022-08-26T07:47:47.776Z,1009.62
2022-08-26T07:48:47.401Z,1009.66
2022-08-26T07:49:47.839Z,1009.62
2022-08-26T07:50:50.128Z,1009.69
2022-08-26T07:52:47.530Z,1009.70
2022-08-26T07:54:47.990Z,1009.72
2022-08-26T07:56:48.351Z,1009.72
2022-08-26T07:57:48.189Z,1009.73
2022-08-26T07:58:51.272Z,1009.73
2022-08-26T08:00:47.977Z,1009.74
2022-08-26T08:01:47.890Z,1009.73
2022-08-26T08:03:48.073Z,1009.74
2022-08-26T08:07:48.244Z,1009.72
2022-08-26T08:08:50.913Z,1009.73
2022-08-26T08:09:48.752Z,1009.73
2022-08-26T08:10:48.850Z,1009.73
2022-08-26T08:11:48.521Z,1009.75
2022-08-26T08:15:50.318Z,1009.77
2022-08-26T08:19:48.367Z,1009.75
2022-08-26T08:23:51.828Z,1009.74
2022-08-26T08:24:49.962Z,1009.73
2022-08-26T08:25:48.957Z,1009.72
2022-08-26T08:26:48.779Z,1009.78
2022-08-26T08:28:48.951Z,1009.81
2022-08-26T08:29:48.871Z,1009.82
2022-08-26T08:31:56.620Z,1009.83
2022-08-26T08:34:49.342Z,1009.81
2022-08-26T08:36:48.876Z,1009.82
2022-08-26T08:37:48.921Z,1009.82
2022-08-26T08:38:48.936Z,1009.83
2022-08-26T08:39:49.153Z,1009.84
2022-08-26T08:40:49.009Z,1009.83
2022-08-26T08:42:49.110Z,1009.83
2022-08-26T08:45:49.575Z,1009.79
2022-08-26T08:46:49.687Z,1009.84
2022-08-26T08:47:49.231Z,1009.84
2022-08-26T08:48:49.263Z,1009.81
2022-08-26T08:50:49.726Z,1009.78
2022-08-26T08:51:49.345Z,1009.81
2022-08-26T08:52:49.787Z,1009.83
2022-08-26T08:54:49.846Z,1009.83
2022-08-26T08:55:49.475Z,1009.84
2022-08-26T08:57:49.534Z,1009.83
2022-08-26T08:58:49.769Z,1009.83
2022-08-26T08:59:50.003Z,1009.83
2022-08-26T09:00:50.236Z,1009.81
2022-08-26T09:01:52.322Z,1009.85
2022-08-26T09:02:49.942Z,1009.84
2022-08-26T09:04:49.956Z,1009.81
2022-08-26T09:06:49.848Z,1009.84
2022-08-26T09:07:50.811Z,1009.84
2022-08-26T09:08:50.459Z,1009.81
2022-08-26T09:10:49.938Z,1009.81
2022-08-26T09:28:52.029Z,1009.95
2022-08-26T09:46:51.053Z,1009.86
2022-08-26T09:47:51.085Z,1009.93
2022-08-26T09:49:51.572Z,1009.88
2022-08-26T09:50:51.193Z,1009.88
2022-08-26T09:51:51.221Z,1009.91
2022-08-26T09:53:51.489Z,1009.93
2022-08-26T09:57:51.461Z,1009.93
2022-08-26T09:58:51.847Z,1009.95
2022-08-26T10:01:51.771Z,1009.90
2022-08-26T10:08:51.750Z,1009.88
2022-08-26T10:09:51.974Z,1009.90
2022-08-26T10:10:53.051Z,1009.88
2022-08-26T10:11:52.054Z,1009.86
2022-08-26T10:12:51.875Z,1009.82
2022-08-26T10:14:52.256Z,1009.84
2022-08-26T10:15:51.960Z,1009.83
2022-08-26T10:17:52.035Z,1009.87
2022-08-26T10:21:53.998Z,1009.85
2022-08-26T10:22:52.196Z,1009.83
2022-08-26T10:23:52.227Z,1009.83
2022-08-26T10:24:55.100Z,1009.83
2022-08-26T10:25:52.491Z,1009.84
2022-08-26T10:29:52.508Z,1009.85
2022-08-26T10:30:52.432Z,1009.80
2022-08-26T10:31:52.822Z,1009.82
2022-08-26T10:32:52.506Z,1009.83
2022-08-26T10:33:55.472Z,1009.83
2022-08-26T10:35:52.600Z,1009.83
2022-08-26T10:37:13.907Z,1009.83
2022-08-26T10:37:53.070Z,1009.90
2022-08-26T10:38:53.000Z,1009.85
2022-08-26T10:39:57.122Z,1009.83
2022-08-26T10:40:53.003Z,1009.79
2022-08-26T10:41:52.777Z,1009.86
2022-08-26T10:42:52.822Z,1009.83
2022-08-26T10:43:53.468Z,1009.78
2022-08-26T10:44:52.879Z,1009.81
2022-08-26T10:45:52.982Z,1009.78
2022-08-26T10:46:52.945Z,1009.83
2022-08-26T10:47:53.183Z,1009.79
2022-08-26T10:48:52.998Z,1009.80
2022-08-26T10:49:54.779Z,1009.74
2022-08-26T10:51:53.306Z,1009.72
2022-08-26T10:53:53.169Z,1009.71
2022-08-26T10:54:53.199Z,1009.75
2022-08-26T10:55:53.230Z,1009.71
2022-08-26T10:56:53.566Z,1009.73
2022-08-26T10:57:53.299Z,1009.77
2022-08-26T10:58:53.326Z,1009.71
2022-08-26T11:01:53.836Z,1009.73
2022-08-26T11:02:53.655Z,1009.74
2022-08-26T11:03:53.916Z,1009.69
2022-08-26T11:04:53.518Z,1009.69
2022-08-26T11:05:53.547Z,1009.66
2022-08-26T11:06:53.782Z,1009.67
2022-08-26T11:07:53.915Z,1009.65
2022-08-26T11:08:53.644Z,1009.68
2022-08-26T11:09:53.674Z,1009.62
2022-08-26T11:11:53.737Z,1009.60
2022-08-26T11:13:54.003Z,1009.58
2022-08-26T11:14:58.755Z,1009.65
2022-08-26T11:15:54.268Z,1009.63
2022-08-26T11:17:53.927Z,1009.64
2022-08-26T11:18:53.955Z,1009.62
2022-08-26T11:20:03.893Z,1009.58
2022-08-26T11:20:54.020Z,1009.62
2022-08-26T11:21:54.257Z,1009.61
2022-08-26T11:22:54.085Z,1009.63
2022-08-26T11:24:54.148Z,1009.60
2022-08-26T11:25:54.487Z,1009.63
2022-08-26T11:26:55.337Z,1009.61
2022-08-26T11:27:54.655Z,1009.65
2022-08-26T11:30:58.051Z,1009.66
2022-08-26T11:31:54.483Z,1009.65
2022-08-26T11:32:54.616Z,1009.62
2022-08-26T11:33:55.143Z,1009.61
2022-08-26T11:34:54.677Z,1009.62
2022-08-26T11:37:54.562Z,1009.55
2022-08-26T11:38:55.003Z,1009.58
2022-08-26T11:39:57.095Z,1009.59
2022-08-26T11:40:54.655Z,1009.57
2022-08-26T11:42:55.126Z,1009.58
2022-08-26T11:43:54.956Z,1009.59
2022-08-26T11:44:56.201Z,1009.54
2022-08-26T11:45:55.146Z,1009.57
2022-08-26T11:49:54.938Z,1009.58
2022-08-26T11:50:54.972Z,1009.60
2022-08-26T11:51:55.206Z,1009.59
2022-08-26T11:52:55.226Z,1009.56
2022-08-26T11:53:55.068Z,1009.56
2022-08-26T11:54:55.099Z,1009.56
2022-08-26T11:55:55.332Z,1009.56
2022-08-26T11:57:55.508Z,1009.60
2022-08-26T11:58:55.230Z,1009.51
2022-08-26T11:59:55.987Z,1009.54
2022-08-26T12:00:55.494Z,1009.58
2022-08-26T12:01:55.328Z,1009.51
2022-08-26T12:02:55.358Z,1009.55
2022-08-26T12:03:55.467Z,1009.54
2022-08-26T12:04:55.425Z,1009.51
2022-08-26T12:05:55.451Z,1009.50
2022-08-26T12:06:55.689Z,1009.50
2022-08-26T12:07:55.505Z,1009.51
2022-08-26T12:08:55.753Z,1009.45
2022-08-26T12:09:56.386Z,1009.45
2022-08-26T12:10:55.618Z,1009.46
2022-08-26T12:11:57.934Z,1009.49
2022-08-26T12:12:55.882Z,1009.47
2022-08-26T12:13:55.910Z,1009.48
2022-08-26T12:14:55.741Z,1009.49
2022-08-26T12:15:55.949Z,1009.45
2022-08-26T12:16:56.572Z,1009.53
2022-08-26T12:17:55.837Z,1009.48
2022-08-26T12:18:55.871Z,1009.47
2022-08-26T12:19:55.888Z,1009.46
2022-08-26T12:20:56.140Z,1009.48
2022-08-26T12:21:56.275Z,1009.49
2022-08-26T12:23:56.234Z,1009.49
2022-08-26T12:24:56.266Z,1009.53
2022-08-26T12:25:57.497Z,1009.52
2022-08-26T12:26:56.112Z,1009.48
2022-08-26T12:27:56.146Z,1009.48
2022-08-26T12:28:56.178Z,1009.45
2022-08-26T12:29:56.213Z,1009.46
2022-08-26T12:30:56.242Z,1009.43
2022-08-26T12:31:56.307Z,1009.47
2022-08-26T12:32:57.781Z,1009.43
2022-08-26T12:33:56.344Z,1009.44
2022-08-26T12:34:56.420Z,1009.45
2022-08-26T12:35:57.004Z,1009.46
2022-08-26T12:36:56.562Z,1009.49
2022-08-26T12:37:56.483Z,1009.47
2022-08-26T12:38:58.448Z,1009.47
2022-08-26T12:39:56.564Z,1009.50
2022-08-26T12:40:56.565Z,1009.45
2022-08-26T12:41:56.605Z,1009.48
2022-08-26T12:42:56.626Z,1009.37
2022-08-26T12:43:56.662Z,1009.41
2022-08-26T12:44:56.694Z,1009.41
2022-08-26T12:45:56.828Z,1009.35
2022-08-26T12:46:56.757Z,1009.46
2022-08-26T12:47:56.791Z,1009.38
2022-08-26T12:48:56.824Z,1009.39
2022-08-26T12:49:56.856Z,1009.35
2022-08-26T12:50:56.884Z,1009.35
2022-08-26T12:51:56.920Z,1009.38
2022-08-26T12:52:56.950Z,1009.38
2022-08-26T12:53:56.984Z,1009.32
2022-08-26T12:54:57.225Z,1009.37
2022-08-26T12:55:57.048Z,1009.34
2022-08-26T12:56:57.080Z,1009.34
2022-08-26T12:57:57.112Z,1009.36
2022-08-26T12:58:57.150Z,1009.34
2022-08-26T12:59:57.176Z,1009.38
2022-08-26T13:00:57.333Z,1009.32
2022-08-26T13:01:57.418Z,1009.38
2022-08-26T13:02:57.272Z,1009.40
2022-08-26T13:03:57.305Z,1009.35
2022-08-26T13:05:00.540Z,1009.32
2022-08-26T13:05:57.370Z,1009.36
2022-08-26T13:06:57.399Z,1009.37
2022-08-26T13:07:57.435Z,1009.34
2022-08-26T13:08:57.466Z,1009.31
2022-08-26T13:09:57.501Z,1009.32
2022-08-26T13:10:57.529Z,1009.36
2022-08-26T13:11:57.566Z,1009.32
2022-08-26T13:12:57.596Z,1009.36
2022-08-26T13:13:57.629Z,1009.34
2022-08-26T13:14:57.660Z,1009.32
2022-08-26T13:15:57.700Z,1009.27
2022-08-26T13:16:57.721Z,1009.29
2022-08-26T13:17:58.225Z,1009.27
2022-08-26T13:18:58.306Z,1009.24
2022-08-26T13:20:58.269Z,1009.26
2022-08-26T13:22:00.928Z,1009.25
2022-08-26T13:30:59.599Z,1009.22
2022-08-26T13:32:58.306Z,1009.22
2022-08-26T13:33:58.485Z,1009.24
2022-08-26T13:35:58.546Z,1009.20
2022-08-26T13:37:58.411Z,1009.20
2022-08-26T13:39:59.120Z,1009.16
2022-08-26T13:42:59.079Z,1009.19
2022-08-26T13:44:58.633Z,1009.15
2022-08-26T13:50:58.825Z,1009.03
2022-08-26T13:54:58.948Z,1009.05
2022-08-26T13:55:59.278Z,1009.07
2022-08-26T13:56:59.420Z,1009.11
2022-08-26T13:57:59.461Z,1009.12
2022-08-26T13:58:59.078Z,1009.12
2022-08-26T14:05:59.513Z,1009.16
2022-08-26T14:06:59.335Z,1009.17
2022-08-26T14:08:59.404Z,1009.15
2022-08-26T14:11:01.079Z,1009.11
2022-08-26T14:13:59.562Z,1009.12
2022-08-26T14:14:59.798Z,1009.13
2022-08-26T14:26:00.241Z,1009.07
2022-08-26T15:17:02.873Z,1008.98
2022-08-26T15:22:01.716Z,1008.92
2022-08-26T15:23:06.203Z,1008.95
2022-08-26T15:24:01.795Z,1008.91
2022-08-26T15:25:01.836Z,1008.93
2022-08-26T15:26:01.858Z,1008.92
2022-08-26T15:32:02.249Z,1008.96
2022-08-26T15:34:02.715Z,1009.00
2022-08-26T15:35:06.829Z,1008.97
2022-08-26T15:40:02.377Z,1008.95
2022-08-26T15:42:02.763Z,1008.87
2022-08-26T15:46:02.714Z,1008.85
2022-08-26T15:47:03.283Z,1008.80
2022-08-26T15:51:02.643Z,1008.76
2022-08-26T15:53:02.926Z,1008.77
2022-08-26T15:54:02.736Z,1008.80
2022-08-26T15:56:03.002Z,1008.77
2022-08-26T15:57:06.200Z,1008.80
2022-08-26T15:58:03.123Z,1008.79
2022-08-26T15:59:03.609Z,1008.77
2022-08-26T16:00:03.002Z,1008.74
2022-08-26T16:01:03.674Z,1008.74
2022-08-26T16:02:03.215Z,1008.70
2022-08-26T16:06:03.493Z,1008.70
2022-08-26T16:08:04.092Z,1008.71
2022-08-26T16:13:04.050Z,1008.69
2022-08-26T16:14:03.877Z,1008.69
2022-08-26T16:17:03.752Z,1008.73
2022-08-26T16:18:03.493Z,1008.72
2022-08-26T16:20:04.872Z,1008.70
2022-08-26T16:21:13.274Z,1008.76
2022-08-26T16:22:03.618Z,1008.67
2022-08-26T16:27:03.774Z,1008.75
2022-08-26T16:29:04.348Z,1008.79
2022-08-26T16:31:04.354Z,1008.78
2022-08-26T16:33:04.567Z,1008.82
2022-08-26T16:37:04.082Z,1008.85
2022-08-26T16:38:04.120Z,1008.89
2022-08-26T16:39:04.144Z,1008.88
2022-08-26T16:40:04.225Z,1008.83
2022-08-26T16:41:04.211Z,1008.90
2022-08-26T16:44:04.708Z,1008.91
2022-08-26T16:48:05.032Z,1008.92
2022-08-26T16:49:04.471Z,1008.91
2022-08-26T16:51:04.524Z,1008.96
2022-08-26T16:52:04.752Z,1008.96
2022-08-26T16:55:04.953Z,1009.00
2022-08-26T16:58:04.739Z,1009.02
2022-08-26T17:00:05.111Z,1009.06
2022-08-26T17:01:05.036Z,1009.00
2022-08-26T17:03:05.367Z,1008.99
2022-08-26T17:04:04.914Z,1008.96
2022-08-26T17:05:05.767Z,1009.00
2022-08-26T17:06:04.993Z,1008.98
2022-08-26T17:07:05.219Z,1008.97
2022-08-26T17:08:05.049Z,1008.98
2022-08-26T17:09:05.078Z,1009.01
2022-08-26T17:11:05.143Z,1009.04
2022-08-26T17:12:05.169Z,1009.07
2022-08-26T17:13:05.220Z,1009.09
2022-08-26T17:14:05.440Z,1009.19
2022-08-26T17:15:05.281Z,1009.12
2022-08-26T17:17:05.837Z,1009.18
2022-08-26T17:18:05.762Z,1009.19
2022-08-26T17:19:05.387Z,1009.20
2022-08-26T17:20:05.425Z,1009.19
2022-08-26T17:21:05.449Z,1009.23
2022-08-26T17:22:06.150Z,1009.26
2022-08-26T17:23:05.586Z,1009.24
2022-08-26T17:24:05.834Z,1009.25
2022-08-26T17:25:05.764Z,1009.26
2022-08-26T17:27:06.349Z,1009.28
2022-08-26T17:28:06.823Z,1009.30
2022-08-26T17:31:06.049Z,1009.29
2022-08-26T17:33:10.900Z,1009.31
2022-08-26T17:34:05.841Z,1009.31
2022-08-26T17:35:05.869Z,1009.31
2022-08-26T17:36:05.917Z,1009.36
2022-08-26T17:37:05.941Z,1009.34
2022-08-26T17:38:06.028Z,1009.34
2022-08-26T17:40:06.091Z,1009.40
2022-08-26T17:42:06.406Z,1009.39
2022-08-26T17:43:10.326Z,1009.36
2022-08-26T17:44:06.158Z,1009.40
2022-08-26T17:45:06.651Z,1009.37
2022-08-26T17:46:06.965Z,1009.35
2022-08-26T17:47:06.249Z,1009.38
2022-08-26T17:48:06.381Z,1009.37
2022-08-26T17:49:06.309Z,1009.37
2022-08-26T17:51:06.359Z,1009.35
2022-08-26T17:52:10.956Z,1009.36
2022-08-26T17:54:06.464Z,1009.29
2022-08-26T17:56:06.727Z,1009.33
2022-08-26T17:57:06.547Z,1009.36
2022-08-26T17:58:07.185Z,1009.34
2022-08-26T17:59:06.605Z,1009.31
2022-08-26T18:00:06.634Z,1009.38
2022-08-26T18:01:06.705Z,1009.40
2022-08-26T18:02:06.694Z,1009.44
2022-08-26T18:03:06.737Z,1009.42
2022-08-26T18:04:06.791Z,1009.38
2022-08-26T18:05:06.790Z,1009.41
2022-08-26T18:06:06.817Z,1009.44
2022-08-26T18:07:06.849Z,1009.42
2022-08-26T18:08:06.883Z,1009.39
2022-08-26T18:09:06.911Z,1009.42
2022-08-26T18:10:11.250Z,1009.44
2022-08-26T18:11:06.971Z,1009.43
2022-08-26T18:12:07.000Z,1009.44
2022-08-26T18:13:07.048Z,1009.42
2022-08-26T18:14:07.064Z,1009.44
2022-08-26T18:15:07.099Z,1009.48
2022-08-26T18:16:07.179Z,1009.48
2022-08-26T18:17:07.153Z,1009.46
2022-08-26T18:18:07.240Z,1009.44
2022-08-26T18:19:07.217Z,1009.48
2022-08-26T18:20:07.250Z,1009.46
2022-08-26T18:21:07.274Z,1009.49
2022-08-26T18:22:07.308Z,1009.49
2022-08-26T18:23:07.359Z,1009.47
2022-08-26T18:24:11.045Z,1009.45
2022-08-26T18:25:07.396Z,1009.50
2022-08-26T18:26:07.439Z,1009.49
2022-08-26T18:27:07.463Z,1009.48
2022-08-26T18:28:07.499Z,1009.56
2022-08-26T18:29:07.521Z,1009.52
2022-08-26T18:30:07.556Z,1009.58
2022-08-26T18:31:07.743Z,1009.56
2022-08-26T18:32:07.617Z,1009.55
2022-08-26T18:33:07.646Z,1009.49
2022-08-26T18:34:07.678Z,1009.55
2022-08-26T18:35:07.704Z,1009.52
2022-08-26T18:36:07.733Z,1009.50
2022-08-26T18:38:11.142Z,1009.51
2022-08-26T18:39:07.825Z,1009.51
2022-08-26T18:40:07.923Z,1009.50
2022-08-26T18:41:07.885Z,1009.51
2022-08-26T18:42:07.925Z,1009.51
2022-08-26T18:43:07.946Z,1009.46
2022-08-26T18:44:11.622Z,1009.49
2022-08-26T18:45:08.007Z,1009.42
2022-08-26T18:46:08.101Z,1009.49
2022-08-26T18:52:08.220Z,1009.53
2022-08-26T18:53:08.464Z,1009.54
2022-08-26T18:54:08.362Z,1009.55
2022-08-26T18:56:08.958Z,1009.56
2022-08-26T18:57:08.385Z,1009.58
2022-08-26T18:58:08.693Z,1009.58
2022-08-26T18:59:08.454Z,1009.57
2022-08-26T19:01:08.795Z,1009.62
2022-08-26T19:02:08.670Z,1009.57
2022-08-26T19:03:18.927Z,1009.62